createdAt,value
2022-11-12T00:00:47.571Z,102435.88
2022-11-12T00:03:15.080Z,102443.44
2022-11-12T00:05:42.663Z,102445.13
2022-11-12T00:08:11.614Z,102456.84
2022-11-12T00:10:41.958Z,102459.84
2022-11-12T00:13:12.237Z,102460.66
2022-11-12T00:15:42.078Z,102465.22
2022-11-12T00:18:11.704Z,102469.09
2022-11-12T00:20:39.330Z,102462.06
2022-11-12T00:23:06.971Z,102468.13
2022-11-12T00:25:39.215Z,102477.16
2022-11-12T00:28:08.228Z,102457.63
2022-11-12T00:30:38.112Z,102465.22
2022-11-12T00:33:06.531Z,102455.41
2022-11-12T00:35:34.928Z,102448.47
2022-11-12T00:38:02.771Z,102463.81
2022-11-12T00:40:30.737Z,102467.78
2022-11-12T00:42:59.677Z,102460.28
2022-11-12T00:45:27.445Z,102463.69
2022-11-12T00:47:56.391Z,102459.03
2022-11-12T00:50:26.785Z,102452.84
2022-11-12T00:52:56.497Z,102460.56
2022-11-12T00:55:25.397Z,102450.22
2022-11-12T00:57:54.289Z,102451.47
2022-11-12T01:00:25.067Z,102444.00
2022-11-12T01:02:58.586Z,102446.88
2022-11-12T01:05:26.327Z,102446.75
2022-11-12T01:07:56.165Z,102442.56
2022-11-12T01:10:23.974Z,102447.03
2022-11-12T01:12:51.583Z,102450.53
2022-11-12T01:15:19.181Z,102448.31
2022-11-12T01:17:48.046Z,102439.63
2022-11-12T01:20:15.589Z,102441.94
2022-11-12T01:22:43.261Z,102440.91
2022-11-12T01:25:10.763Z,102440.44
2022-11-12T01:27:38.295Z,102439.69
2022-11-12T01:30:07.109Z,102432.13
2022-11-12T01:32:36.209Z,102445.75
2022-11-12T01:35:05.678Z,102436.97
2022-11-12T01:37:33.237Z,102442.72
2022-11-12T01:40:00.748Z,102445.06
2022-11-12T01:42:30.767Z,102441.19
2022-11-12T01:44:58.324Z,102437.78
2022-11-12T01:47:28.177Z,102442.03
2022-11-12T01:49:57.936Z,102436.81
2022-11-12T01:52:30.779Z,102430.41
2022-11-12T01:55:02.528Z,102438.22
2022-11-12T01:57:34.773Z,102444.66
2022-11-12T02:00:06.007Z,102439.03
2022-11-12T02:02:34.181Z,102440.59
2022-11-12T02:05:02.866Z,102437.31
2022-11-12T02:07:32.176Z,102425.75
2022-11-12T02:10:01.185Z,102434.38
2022-11-12T02:12:46.309Z,102431.19
2022-11-12T02:15:13.910Z,102430.06
2022-11-12T02:17:41.475Z,102434.75
2022-11-12T02:20:10.791Z,102421.72
2022-11-12T02:22:39.669Z,102430.66
2022-11-12T02:25:08.521Z,102432.00
2022-11-12T02:27:36.162Z,102436.84
2022-11-12T02:30:03.887Z,102432.06
2022-11-12T02:32:31.506Z,102429.22
2022-11-12T02:34:59.037Z,102432.41
2022-11-12T02:37:26.571Z,102432.00
2022-11-12T02:39:55.427Z,102426.78
2022-11-12T02:42:22.930Z,102434.59
2022-11-12T02:44:50.545Z,102432.53
2022-11-12T02:47:18.077Z,102435.63
2022-11-12T02:49:45.655Z,102425.66
2022-11-12T02:52:13.211Z,102429.59
2022-11-12T02:54:40.705Z,102429.53
2022-11-12T02:57:09.606Z,102434.31
2022-11-12T02:59:37.133Z,102435.84
2022-11-12T03:02:04.623Z,102428.69
2022-11-12T03:04:32.121Z,102430.50
2022-11-12T03:06:59.639Z,102428.41
2022-11-12T03:09:27.173Z,102423.28
2022-11-12T03:11:54.758Z,102430.88
2022-11-12T03:14:23.712Z,102428.34
2022-11-12T03:16:51.235Z,102435.09
2022-11-12T03:19:18.741Z,102429.13
2022-11-12T03:21:46.301Z,102426.50
2022-11-12T03:24:14.074Z,102431.56
2022-11-12T03:26:41.588Z,102433.19
2022-11-12T03:29:09.081Z,102422.94
2022-11-12T03:31:37.958Z,102422.09
2022-11-12T03:34:05.764Z,102417.44
2022-11-12T03:36:33.358Z,102420.41
2022-11-12T03:39:00.878Z,102414.56
2022-11-12T03:41:28.393Z,102418.19
2022-11-12T03:43:55.853Z,102418.97
2022-11-12T03:46:23.344Z,102420.84
2022-11-12T03:48:53.124Z,102413.94
2022-11-12T03:51:21.246Z,102410.56
2022-11-12T03:53:48.748Z,102404.53
2022-11-12T03:56:16.236Z,102409.22
2022-11-12T03:58:43.742Z,102412.97
2022-11-12T04:01:11.302Z,102412.97
2022-11-12T04:03:38.862Z,102408.34
2022-11-12T04:06:26.077Z,102411.44
2022-11-12T04:08:53.568Z,102412.03
2022-11-12T04:11:21.107Z,102415.19
2022-11-12T04:13:48.582Z,102416.00
2022-11-12T04:16:35.213Z,102410.56
2022-11-12T04:19:20.956Z,102406.84
2022-11-12T04:21:57.210Z,102414.84
2022-11-12T04:24:45.177Z,102419.88
2022-11-12T04:27:15.828Z,102407.63
2022-11-12T04:30:01.345Z,102423.47
2022-11-12T04:32:29.441Z,102414.09
2022-11-12T04:34:57.358Z,102407.78
2022-11-12T04:37:27.916Z,102410.03
2022-11-12T04:39:55.904Z,102412.56
2022-11-12T04:42:41.318Z,102420.25
2022-11-12T04:45:09.534Z,102421.31
2022-11-12T04:47:38.484Z,102424.06
2022-11-12T04:50:09.234Z,102420.13
2022-11-12T04:52:38.092Z,102439.56
2022-11-12T04:55:06.746Z,102431.59
2022-11-12T04:57:34.319Z,102426.47
2022-11-12T05:00:01.812Z,102422.16
2022-11-12T05:02:29.310Z,102409.94
2022-11-12T05:04:56.776Z,102415.31
2022-11-12T05:07:24.274Z,102413.38
2022-11-12T05:09:53.100Z,102417.84
2022-11-12T05:12:20.681Z,102409.66
2022-11-12T05:14:48.164Z,102420.03
2022-11-12T05:17:15.672Z,102422.44
2022-11-12T05:19:43.217Z,102422.56
2022-11-12T05:22:21.971Z,102420.72
2022-11-12T05:24:58.683Z,102418.84
2022-11-12T05:27:26.449Z,102420.59
2022-11-12T05:29:53.948Z,102419.84
2022-11-12T05:32:21.501Z,102419.81
2022-11-12T05:34:48.988Z,102420.94
2022-11-12T05:37:16.673Z,102411.66
2022-11-12T05:39:44.170Z,102417.09
2022-11-12T05:42:14.324Z,102410.34
2022-11-12T05:44:42.109Z,102421.28
2022-11-12T05:47:09.587Z,102411.41
2022-11-12T05:49:37.034Z,102422.47
2022-11-12T05:52:04.752Z,102422.69
2022-11-12T05:54:32.233Z,102421.94
2022-11-12T05:56:59.792Z,102411.47
2022-11-12T05:59:28.610Z,102429.28
2022-11-12T06:01:56.099Z,102422.22
2022-11-12T06:04:24.440Z,102415.13
2022-11-12T06:06:51.932Z,102426.94
2022-11-12T06:09:19.471Z,102422.59
2022-11-12T06:11:46.966Z,102425.97
2022-11-12T06:14:14.599Z,102420.19
2022-11-12T06:16:43.571Z,102428.81
2022-11-12T06:19:11.087Z,102430.66
2022-11-12T06:21:38.565Z,102426.94
2022-11-12T06:24:06.669Z,102429.81
2022-11-12T06:26:34.187Z,102429.47
2022-11-12T06:29:01.689Z,102436.34
2022-11-12T06:31:29.194Z,102440.78
2022-11-12T06:33:58.021Z,102440.31
2022-11-12T06:36:25.511Z,102438.97
2022-11-12T06:38:53.046Z,102442.22
2022-11-12T06:41:20.635Z,102441.25
2022-11-12T06:43:48.141Z,102441.16
2022-11-12T06:46:16.695Z,102439.44
2022-11-12T06:48:44.283Z,102439.69
2022-11-12T06:51:17.675Z,102444.75
2022-11-12T06:53:45.449Z,102441.16
2022-11-12T06:56:13.834Z,102437.13
2022-11-12T06:58:41.459Z,102442.06
2022-11-12T07:01:12.111Z,102434.88
2022-11-12T07:03:40.632Z,102445.72
2022-11-12T07:06:09.950Z,102441.56
2022-11-12T07:08:39.359Z,102445.88
2022-11-12T07:11:07.253Z,102439.88
2022-11-12T07:13:35.688Z,102444.59
2022-11-12T07:16:04.777Z,102455.34
2022-11-12T07:18:32.644Z,102453.16
2022-11-12T07:21:00.905Z,102460.69
2022-11-12T07:23:28.779Z,102449.41
2022-11-12T07:25:58.900Z,102450.16
2022-11-12T07:28:26.844Z,102458.69
2022-11-12T07:31:01.464Z,102454.88
2022-11-12T07:33:30.087Z,102456.31
2022-11-12T07:35:59.216Z,102456.34
2022-11-12T07:38:27.398Z,102449.69
2022-11-12T07:41:01.470Z,102456.31
2022-11-12T07:43:30.073Z,102448.47
2022-11-12T07:46:04.769Z,102461.94
2022-11-12T07:48:35.399Z,102452.88
2022-11-12T07:51:04.125Z,102451.69
2022-11-12T07:53:31.901Z,102445.66
2022-11-12T07:56:04.414Z,102451.25
2022-11-12T07:58:34.390Z,102447.84
2022-11-12T08:01:08.499Z,102441.94
2022-11-12T08:03:37.501Z,102451.31
2022-11-12T08:06:10.817Z,102452.09
2022-11-12T08:08:38.584Z,102447.34
2022-11-12T08:11:08.938Z,102452.75
2022-11-12T08:13:37.885Z,102451.47
2022-11-12T08:16:06.251Z,102443.53
2022-11-12T08:18:34.193Z,102447.63
2022-11-12T08:21:06.073Z,102446.75
2022-11-12T08:23:34.935Z,102447.63
2022-11-12T08:26:03.766Z,102452.19
2022-11-12T08:28:37.162Z,102448.09
2022-11-12T08:31:06.947Z,102456.25
2022-11-12T08:33:34.750Z,102450.69
2022-11-12T08:36:04.037Z,102457.13
2022-11-12T08:38:31.856Z,102441.81
2022-11-12T08:41:01.659Z,102454.25
2022-11-12T08:43:29.330Z,102447.34
2022-11-12T08:46:00.015Z,102455.75
2022-11-12T08:48:30.988Z,102455.28
2022-11-12T08:50:59.008Z,102456.78
2022-11-12T08:53:27.883Z,102460.13
2022-11-12T08:55:55.700Z,102460.34
2022-11-12T08:58:24.151Z,102460.13
2022-11-12T09:00:52.728Z,102455.28
2022-11-12T09:03:24.013Z,102461.09
2022-11-12T09:05:52.266Z,102452.41
2022-11-12T09:08:21.977Z,102465.06
2022-11-12T09:10:50.267Z,102464.66
2022-11-12T09:13:18.339Z,102462.72
2022-11-12T09:15:46.532Z,102460.28
2022-11-12T09:18:16.334Z,102456.25
2022-11-12T09:20:45.801Z,102460.47
2022-11-12T09:23:14.746Z,102455.44
2022-11-12T09:25:43.038Z,102452.91
2022-11-12T09:28:11.714Z,102452.72
2022-11-12T09:30:42.695Z,102449.56
2022-11-12T09:33:10.355Z,102449.94
2022-11-12T09:35:37.889Z,102453.56
2022-11-12T09:38:06.806Z,102456.84
2022-11-12T09:40:57.251Z,102455.63
2022-11-12T09:43:27.243Z,102459.94
2022-11-12T09:46:13.853Z,102459.47
2022-11-12T09:48:46.189Z,102468.88
2022-11-12T09:51:18.008Z,102465.00
2022-11-12T09:53:50.371Z,102463.94
2022-11-12T09:56:20.013Z,102464.44
2022-11-12T09:58:47.856Z,102467.66
2022-11-12T10:01:17.990Z,102462.97
2022-11-12T10:03:54.435Z,102465.00
2022-11-12T10:06:23.893Z,102466.09
2022-11-12T10:08:54.752Z,102461.63
2022-11-12T10:12:01.268Z,102456.94
2022-11-12T10:14:44.525Z,102449.59
2022-11-12T10:17:15.256Z,102450.09
2022-11-12T10:19:51.085Z,102442.75
2022-11-12T10:22:27.884Z,102447.44
2022-11-12T10:24:57.646Z,102438.50
2022-11-12T10:27:29.471Z,102427.75
2022-11-12T10:30:01.306Z,102427.63
2022-11-12T10:32:28.946Z,102422.56
2022-11-12T10:34:56.447Z,102424.53
2022-11-12T10:37:27.459Z,102421.84
2022-11-12T10:39:56.358Z,102423.06
2022-11-12T10:42:24.283Z,102427.16
2022-11-12T10:44:52.720Z,102433.56
2022-11-12T10:47:23.691Z,102430.63
2022-11-12T10:50:05.002Z,102434.13
2022-11-12T10:52:32.742Z,102426.38
2022-11-12T10:55:16.538Z,102429.03
2022-11-12T10:57:44.119Z,102426.13
2022-11-12T11:00:22.308Z,102427.06
2022-11-12T11:02:52.492Z,102420.94
2022-11-12T11:05:32.819Z,102419.63
2022-11-12T11:08:01.559Z,102425.66
2022-11-12T11:10:32.727Z,102420.34
2022-11-12T11:13:10.676Z,102420.47
2022-11-12T11:15:40.162Z,102417.44
2022-11-12T11:18:10.016Z,102418.56
2022-11-12T11:20:44.628Z,102419.88
2022-11-12T11:23:17.125Z,102412.19
2022-11-12T11:25:48.023Z,102400.88
2022-11-12T11:28:23.043Z,102405.94
2022-11-12T11:30:54.989Z,102407.22
2022-11-12T11:33:26.867Z,102397.09
2022-11-12T11:36:00.780Z,102399.88
2022-11-12T11:38:35.800Z,102395.50
2022-11-12T11:41:19.724Z,102397.44
2022-11-12T11:43:55.225Z,102389.09
2022-11-12T11:46:51.318Z,102385.09
2022-11-12T11:49:40.089Z,102385.22
2022-11-12T11:52:13.222Z,102375.59
2022-11-12T11:54:55.067Z,102377.88
2022-11-12T11:57:29.916Z,102385.09
2022-11-12T12:00:06.255Z,102376.50
2022-11-12T12:02:45.643Z,102372.56
2022-11-12T12:05:25.923Z,102374.75
2022-11-12T12:07:58.284Z,102371.97
2022-11-12T12:10:40.225Z,102368.50
2022-11-12T12:13:22.577Z,102369.47
2022-11-12T12:16:02.097Z,102366.63
2022-11-12T12:18:37.047Z,102360.72
2022-11-12T12:21:07.775Z,102363.00
2022-11-12T12:23:38.551Z,102363.00
2022-11-12T12:26:09.243Z,102353.09
2022-11-12T12:28:41.390Z,102361.94
2022-11-12T12:31:12.870Z,102353.06
2022-11-12T12:33:45.267Z,102350.84
2022-11-12T12:36:17.333Z,102347.78
2022-11-12T12:38:47.657Z,102358.91
2022-11-12T12:41:19.546Z,102345.63
2022-11-12T12:43:52.321Z,102347.34
2022-11-12T12:46:23.876Z,102337.13
2022-11-12T12:48:53.982Z,102338.81
2022-11-12T12:51:22.071Z,102335.84
2022-11-12T12:53:49.673Z,102332.94
2022-11-12T12:56:43.511Z,102332.22
2022-11-12T12:59:21.280Z,102324.91
2022-11-12T13:01:56.253Z,102320.78
2022-11-12T13:04:52.381Z,102311.56
2022-11-12T13:07:23.737Z,102308.34
2022-11-12T13:09:51.278Z,102323.31
2022-11-12T13:12:24.818Z,102310.03
2022-11-12T13:15:21.999Z,102309.50
2022-11-12T13:17:53.090Z,102305.88
2022-11-12T13:20:39.540Z,102315.66
2022-11-12T13:24:03.712Z,102298.66
2022-11-12T13:26:59.682Z,102305.66
2022-11-12T13:29:45.513Z,102302.03
2022-11-12T13:32:34.723Z,102303.78
2022-11-12T13:35:34.684Z,102298.94
2022-11-12T13:38:05.778Z,102289.63
2022-11-12T13:40:47.512Z,102289.34
2022-11-12T13:43:27.556Z,102284.56
2022-11-12T13:45:58.369Z,102285.13
2022-11-12T13:48:29.350Z,102282.38
2022-11-12T13:51:02.998Z,102287.25
2022-11-12T13:53:32.960Z,102277.69
2022-11-12T13:56:05.051Z,102279.94
2022-11-12T13:58:35.078Z,102282.13
2022-11-12T14:01:04.060Z,102280.22
2022-11-12T14:03:35.190Z,102275.81
2022-11-12T14:06:07.101Z,102262.47
2022-11-12T14:08:56.701Z,102275.28
2022-11-12T14:11:44.611Z,102266.84
2022-11-12T14:14:21.592Z,102269.25
2022-11-12T14:16:58.435Z,102264.84
2022-11-12T14:19:53.843Z,102259.28
2022-11-12T14:22:22.331Z,102252.78
2022-11-12T14:24:53.379Z,102255.28
2022-11-12T14:27:25.575Z,102259.53
2022-11-12T14:30:16.796Z,102254.50
2022-11-12T14:32:46.038Z,102240.59
2022-11-12T14:35:43.827Z,102240.94
2022-11-12T14:38:14.602Z,102249.50
2022-11-12T14:40:47.883Z,102249.91
2022-11-12T14:43:27.403Z,102244.59
2022-11-12T14:45:59.157Z,102255.47
2022-11-12T14:48:27.158Z,102254.16
2022-11-12T14:50:59.564Z,102253.63
2022-11-12T14:53:35.837Z,102239.59
2022-11-12T14:56:05.409Z,102244.59
2022-11-12T14:58:36.717Z,102260.22
2022-11-12T15:02:08.534Z,102255.44
2022-11-12T15:04:19.888Z,102247.75
2022-11-12T15:06:53.741Z,102252.19
2022-11-12T15:09:33.878Z,102252.59
2022-11-12T15:12:05.681Z,102238.34
2022-11-12T15:14:35.678Z,102241.13
2022-11-12T15:17:06.005Z,102242.00
2022-11-12T15:19:33.922Z,102248.66
2022-11-12T15:22:02.938Z,102246.97
2022-11-12T15:24:38.977Z,102241.13
2022-11-12T15:27:35.482Z,102233.22
2022-11-12T15:30:16.239Z,102230.75
2022-11-12T15:32:46.237Z,102229.31
2022-11-12T15:35:33.681Z,102235.91
2022-11-12T15:38:03.133Z,102237.91
2022-11-12T15:40:32.103Z,102238.22
2022-11-12T15:43:00.369Z,102231.16
2022-11-12T15:45:28.125Z,102230.16
2022-11-12T15:47:57.147Z,102228.69
2022-11-12T15:50:26.000Z,102222.53
2022-11-12T15:52:53.838Z,102217.78
2022-11-12T15:55:21.643Z,102216.22
2022-11-12T15:57:50.665Z,102218.69
2022-11-12T16:00:20.063Z,102220.13
2022-11-12T16:02:48.985Z,102214.31
2022-11-12T16:05:19.226Z,102213.75
2022-11-12T16:08:13.870Z,102210.78
2022-11-12T16:10:43.378Z,102206.84
2022-11-12T16:13:16.777Z,102203.84
2022-11-12T16:15:44.612Z,102201.00
2022-11-12T16:18:12.558Z,102194.97
2022-11-12T16:20:41.734Z,102190.41
2022-11-12T16:23:09.511Z,102196.22
2022-11-12T16:25:38.653Z,102187.06
2022-11-12T16:28:11.668Z,102200.56
2022-11-12T16:30:39.396Z,102195.75
2022-11-12T16:33:07.106Z,102195.56
2022-11-12T16:35:36.123Z,102178.69
2022-11-12T16:38:05.543Z,102186.78
2022-11-12T16:40:33.301Z,102194.03
2022-11-12T16:43:00.963Z,102186.91
2022-11-12T16:45:35.560Z,102187.28
2022-11-12T16:48:12.407Z,102193.09
2022-11-12T16:50:40.262Z,102195.97
2022-11-12T16:53:09.358Z,102195.22
2022-11-12T16:55:37.097Z,102200.16
2022-11-12T16:58:04.809Z,102197.13
2022-11-12T17:00:34.011Z,102201.63
2022-11-12T17:03:01.769Z,102199.34
2022-11-12T17:05:29.434Z,102193.84
2022-11-12T17:07:58.596Z,102190.88
2022-11-12T17:10:31.597Z,102191.97
2022-11-12T17:12:59.443Z,102193.91
2022-11-12T17:15:27.388Z,102191.75
2022-11-12T17:17:55.246Z,102188.13
2022-11-12T17:20:23.051Z,102185.59
2022-11-12T17:22:50.673Z,102183.34
2022-11-12T17:25:18.602Z,102178.28
2022-11-12T17:27:47.721Z,102172.97
2022-11-12T17:30:15.742Z,102176.88
2022-11-12T17:32:43.828Z,102171.56
2022-11-12T17:35:11.519Z,102185.78
2022-11-12T17:37:39.269Z,102181.19
2022-11-12T17:40:08.480Z,102176.00
2022-11-12T17:42:36.261Z,102176.38
2022-11-12T17:45:06.115Z,102185.09
2022-11-12T17:47:39.320Z,102184.72
2022-11-12T17:50:10.875Z,102182.31
2022-11-12T17:52:38.530Z,102176.31
2022-11-12T17:55:09.374Z,102179.34
2022-11-12T17:57:37.195Z,102176.31
2022-11-12T18:00:07.908Z,102177.44
2022-11-12T18:02:35.778Z,102183.81
2022-11-12T18:05:07.678Z,102186.34
2022-11-12T18:07:35.566Z,102177.78
2022-11-12T18:10:03.543Z,102179.34
2022-11-12T18:12:31.267Z,102180.94
2022-11-12T18:14:58.896Z,102175.75
2022-11-12T18:17:28.332Z,102180.06
2022-11-12T18:19:55.981Z,102171.16
2022-11-12T18:22:23.657Z,102165.16
2022-11-12T18:24:52.766Z,102172.84
2022-11-12T18:27:20.509Z,102173.34
2022-11-12T18:29:48.269Z,102172.00
2022-11-12T18:32:16.047Z,102168.31
2022-11-12T18:34:46.034Z,102168.50
2022-11-12T18:37:13.660Z,102169.34
2022-11-12T18:39:41.240Z,102159.88
2022-11-12T18:42:08.828Z,102165.16
2022-11-12T18:44:36.753Z,102154.31
2022-11-12T18:47:04.281Z,102162.00
2022-11-12T18:49:31.849Z,102164.19
2022-11-12T18:52:00.679Z,102157.47
2022-11-12T18:54:28.187Z,102140.72
2022-11-12T18:56:55.766Z,102138.19
2022-11-12T18:59:24.249Z,102136.03
2022-11-12T19:01:51.768Z,102138.44
2022-11-12T19:04:19.343Z,102125.44
2022-11-12T19:06:47.002Z,102124.72
2022-11-12T19:09:16.035Z,102125.56
2022-11-12T19:11:43.881Z,102117.16
2022-11-12T19:14:12.040Z,102122.59
2022-11-12T19:16:44.701Z,102127.03
2022-11-12T19:19:12.842Z,102126.19
2022-11-12T19:21:40.818Z,102124.03
2022-11-12T19:24:21.568Z,102127.28
2022-11-12T19:26:52.679Z,102124.25
2022-11-12T19:29:51.382Z,102118.13
2022-11-12T19:32:18.362Z,102116.09
2022-11-12T19:34:49.563Z,102118.16
2022-11-12T19:37:33.059Z,102119.72
2022-11-12T19:40:06.239Z,102122.47
2022-11-12T19:42:38.185Z,102121.88
2022-11-12T19:45:08.863Z,102117.56
2022-11-12T19:47:54.659Z,102111.75
2022-11-12T19:50:32.767Z,102111.03
2022-11-12T19:53:00.364Z,102110.78
2022-11-12T19:55:38.653Z,102107.81
2022-11-12T19:58:09.496Z,102112.13
2022-11-12T20:00:40.806Z,102112.38
2022-11-12T20:03:08.838Z,102114.91
2022-11-12T20:05:36.420Z,102120.31
2022-11-12T20:08:04.790Z,102113.47
2022-11-12T20:10:38.095Z,102116.13
2022-11-12T20:13:13.123Z,102107.56
2022-11-12T20:15:47.097Z,102110.09
2022-11-12T20:18:14.913Z,102108.44
2022-11-12T20:20:47.016Z,102113.22
2022-11-12T20:23:16.215Z,102110.59
2022-11-12T20:25:47.389Z,102109.13
2022-11-12T20:28:16.759Z,102102.03
2022-11-12T20:30:54.961Z,102095.31
2022-11-12T20:33:22.936Z,102094.47
2022-11-12T20:35:50.683Z,102097.59
2022-11-12T20:38:18.341Z,102101.78
2022-11-12T20:40:48.218Z,102103.59
2022-11-12T20:43:16.426Z,102103.81
2022-11-12T20:45:51.222Z,102092.06
2022-11-12T20:48:20.410Z,102094.94
2022-11-12T20:51:16.782Z,102087.94
2022-11-12T20:53:40.803Z,102095.88
2022-11-12T20:56:09.992Z,102088.31
2022-11-12T21:01:36.707Z,102082.31
2022-11-12T21:04:06.036Z,102071.38
2022-11-12T21:06:33.693Z,102080.72
2022-11-12T21:09:01.411Z,102064.97
2022-11-12T21:11:31.322Z,102065.56
2022-11-12T21:14:00.053Z,102070.16
2022-11-12T21:16:30.572Z,102070.03
2022-11-12T21:19:06.849Z,102060.91
2022-11-12T21:21:36.079Z,102061.88
2022-11-12T21:24:06.775Z,102064.13
2022-11-12T21:26:36.873Z,102058.63
2022-11-12T21:29:22.883Z,102056.81
2022-11-12T21:31:52.642Z,102057.91
2022-11-12T21:35:20.986Z,102059.00
2022-11-12T21:37:48.544Z,102047.66
2022-11-12T21:40:27.654Z,102053.66
2022-11-12T21:42:55.444Z,102051.13
2022-11-12T21:45:23.112Z,102052.00
2022-11-12T21:47:50.833Z,102048.25
2022-11-12T21:50:20.114Z,102046.06
2022-11-12T21:53:13.908Z,102039.69
2022-11-12T21:55:50.506Z,102027.53
2022-11-12T21:58:18.366Z,102031.59
2022-11-12T22:00:52.209Z,102036.22
2022-11-12T22:03:22.696Z,102029.59
2022-11-12T22:05:52.088Z,102021.50
2022-11-12T22:08:33.222Z,102032.09
2022-11-12T22:11:08.186Z,102026.81
2022-11-12T22:20:43.064Z,102022.47
2022-11-12T22:23:20.552Z,102014.66
2022-11-12T22:26:40.956Z,102017.19
2022-11-12T22:28:42.722Z,102009.47
2022-11-12T22:31:14.087Z,102005.97
2022-11-12T22:33:46.398Z,102006.59
2022-11-12T22:36:22.636Z,101988.44
2022-11-12T22:39:14.627Z,101992.63
2022-11-12T22:41:48.147Z,101998.91
2022-11-12T22:44:26.273Z,101992.28
2022-11-12T22:46:55.211Z,102000.94
2022-11-12T22:49:27.752Z,101990.22
2022-11-12T22:51:55.509Z,101984.69
2022-11-12T22:55:44.688Z,101991.78
2022-11-12T22:57:45.916Z,101988.44
2022-11-12T23:00:16.361Z,101979.59
2022-11-12T23:02:58.297Z,101978.91
2022-11-12T23:05:28.425Z,101984.69
2022-11-12T23:08:03.204Z,101979.50
2022-11-12T23:10:39.415Z,101979.66
2022-11-12T23:13:26.591Z,101973.94
2022-11-12T23:15:54.610Z,101970.03
2022-11-12T23:18:27.007Z,101972.31
2022-11-12T23:21:07.797Z,101990.41
2022-11-12T23:23:48.564Z,101974.97
2022-11-12T23:26:29.630Z,101986.41
2022-11-12T23:28:57.526Z,101974.47
2022-11-12T23:31:27.228Z,101971.53
2022-11-12T23:33:56.055Z,101977.00
2022-11-12T23:36:24.697Z,101974.56
2022-11-12T23:38:52.603Z,101975.28
2022-11-12T23:41:25.661Z,101975.31
2022-11-12T23:43:54.280Z,101963.38
2022-11-12T23:46:21.916Z,101968.53
2022-11-12T23:48:50.916Z,101952.97
2022-11-12T23:51:20.498Z,101960.69
2022-11-12T23:53:50.215Z,101944.56
2022-11-12T23:56:19.353Z,101951.28
2022-11-12T23:58:50.734Z,101948.50
